Portada
METAR-TAF:

METAR-TAF

Aeroports :

Aeroport de Svalbard-Longyear

Longyearbyen, Noruega

latitud: 78-15N, longitud: 015-28E, altitud: 2 m

Observació

L'informe es va fer fa 31 minuts, a les 09:50 UTC
Vent 11 kt del Est/Sud-Est
Temperatura -9°C
Humitat 79%
Pressió 1013 hPa
Visibilitat 10 km o més
Escasses núvols a una alçada de 2000 ft
Núvols disperses a una alçada de 3500 ft

METAR: ENSB 310950Z 12011KT 9999 FEW020 SCT035 M09/M12 Q1013 RMK WIND 1400FT 13008KT

Hora: 11:21 (10:21 UTC)

Pronòstic

Pronòstic vàlid del 31 a les 06 UTC al 01 a les 06 UTC
Vent 8 kt del Est/Sud-Est
Visibilitat 10 km o més
Escasses núvols a una alçada de 2000 ft
Temporalment
l' 01 a les 00 UTC al 01 a les 06 UTC
Vent 20 kt del Est/Sud-Est

TAF: ENSB 3106/0106 12008KT 9999 FEW020 TEMPO 0100/0106 12020KT

Observacions i pronòstics meteorològics de més de 4000 aeroports (METAR i TAF).

Les estacions disponibles són els punts grocs i vermells al mapa.

Posi el ratolí al punt desitjat per veure el nom de l'estació.

Feu clic per veure les observacions i els pronòstics meteorològics.

Per canviar el mapa: feu clic els botons verds amb una creu de color negre per apropar; al botó verd amb un guió per allunyar la imatge; o en les fletxes verdes per a mapes adjacents.


METAR-TAF: